createdAt,value
2018-09-30T00:01:50.701Z,99.90
2018-09-30T00:04:19.179Z,99.90
2018-09-30T00:06:48.094Z,99.90
2018-09-30T00:09:16.646Z,99.90
2018-09-30T00:11:45.136Z,99.90
2018-09-30T00:14:13.637Z,99.90
2018-09-30T00:16:42.105Z,99.90
2018-09-30T00:19:10.586Z,99.90
2018-09-30T00:21:39.094Z,99.90
2018-09-30T00:24:12.866Z,99.90
2018-09-30T00:26:46.783Z,99.90
2018-09-30T00:29:15.271Z,99.90
2018-09-30T00:31:43.802Z,99.90
2018-09-30T00:34:17.470Z,99.90
2018-09-30T00:36:46.098Z,99.90
2018-09-30T00:39:14.601Z,99.90
2018-09-30T00:41:43.080Z,99.90
2018-09-30T00:44:11.652Z,99.90
2018-09-30T00:46:40.147Z,99.90
2018-09-30T00:49:08.634Z,99.90
2018-09-30T00:51:37.144Z,99.90
2018-09-30T00:54:05.616Z,99.90
2018-09-30T00:56:34.081Z,99.90
2018-09-30T00:59:02.597Z,99.90
2018-09-30T01:01:31.103Z,99.90
2018-09-30T01:03:59.589Z,99.90
2018-09-30T01:06:28.064Z,99.90
2018-09-30T01:08:56.529Z,99.90
2018-09-30T01:11:25.037Z,99.90
2018-09-30T01:13:53.483Z,99.90
2018-09-30T01:16:22.077Z,99.90
2018-09-30T01:18:50.537Z,99.90
2018-09-30T01:21:18.994Z,99.90
2018-09-30T01:23:47.446Z,99.90
2018-09-30T01:26:15.927Z,99.90
2018-09-30T01:28:44.375Z,99.90
2018-09-30T01:31:12.837Z,99.90
2018-09-30T01:33:41.307Z,99.90
2018-09-30T01:36:09.794Z,99.90
2018-09-30T01:38:38.315Z,99.90
2018-09-30T01:41:06.890Z,99.90
2018-09-30T01:43:35.392Z,99.90
2018-09-30T01:46:03.854Z,99.90
2018-09-30T01:48:32.337Z,99.90
2018-09-30T01:51:00.820Z,99.90
2018-09-30T01:53:29.296Z,99.90
2018-09-30T01:55:57.809Z,99.90
2018-09-30T01:58:26.327Z,99.90
2018-09-30T02:00:54.786Z,99.90
2018-09-30T02:03:23.233Z,99.90
2018-09-30T02:05:51.734Z,99.90
2018-09-30T02:08:20.215Z,99.90
2018-09-30T02:10:48.669Z,99.90
2018-09-30T02:13:17.153Z,99.90
2018-09-30T02:15:45.641Z,99.90
2018-09-30T02:18:14.127Z,99.90
2018-09-30T02:20:42.597Z,99.90
2018-09-30T02:23:11.079Z,99.90
2018-09-30T02:25:39.562Z,99.90
2018-09-30T02:28:08.018Z,99.90
2018-09-30T02:30:36.525Z,99.90
2018-09-30T02:33:04.986Z,99.90
2018-09-30T02:35:33.446Z,99.90
2018-09-30T02:38:01.936Z,99.90
2018-09-30T02:40:30.726Z,99.90
2018-09-30T02:42:59.210Z,99.90
2018-09-30T02:45:27.747Z,99.90
2018-09-30T02:47:56.219Z,99.90
2018-09-30T02:50:24.717Z,99.90
2018-09-30T02:52:53.212Z,99.90
2018-09-30T02:55:21.691Z,99.90
2018-09-30T02:57:50.164Z,99.90
2018-09-30T03:00:18.661Z,99.90
2018-09-30T03:02:47.129Z,99.90
2018-09-30T03:05:15.618Z,99.90
2018-09-30T03:07:49.362Z,99.90
2018-09-30T03:10:17.828Z,99.90
2018-09-30T03:12:46.303Z,99.90
2018-09-30T03:15:14.825Z,99.90
2018-09-30T03:17:43.314Z,99.90
2018-09-30T03:20:11.844Z,99.90
2018-09-30T03:22:40.316Z,99.90
2018-09-30T03:25:08.780Z,99.90
2018-09-30T03:27:37.228Z,99.90
2018-09-30T03:30:05.793Z,99.90
2018-09-30T03:32:34.300Z,99.90
2018-09-30T03:35:02.774Z,99.90
2018-09-30T03:37:31.241Z,99.90
2018-09-30T03:39:59.737Z,99.90
2018-09-30T03:42:28.199Z,99.90
2018-09-30T03:44:56.649Z,99.90
2018-09-30T03:47:25.134Z,99.90
2018-09-30T03:49:53.589Z,99.90
2018-09-30T03:52:22.065Z,99.90
2018-09-30T03:54:50.527Z,99.90
2018-09-30T03:57:19.037Z,99.90
2018-09-30T03:59:47.504Z,99.90
2018-09-30T04:02:15.962Z,99.90
2018-09-30T04:04:44.445Z,99.90
2018-09-30T04:07:12.931Z,99.90
2018-09-30T04:09:41.481Z,99.90
2018-09-30T04:12:09.889Z,99.90
2018-09-30T04:14:38.401Z,99.90
2018-09-30T04:17:06.910Z,99.90
2018-09-30T04:19:35.381Z,99.90
2018-09-30T04:22:03.902Z,99.90
2018-09-30T04:24:32.357Z,99.90
2018-09-30T04:27:00.851Z,99.90
2018-09-30T04:29:29.313Z,99.90
2018-09-30T04:31:57.772Z,99.90
2018-09-30T04:34:26.212Z,99.90
2018-09-30T04:36:54.650Z,99.90
2018-09-30T04:39:23.182Z,99.90
2018-09-30T04:41:51.661Z,99.90
2018-09-30T04:44:20.137Z,99.90
2018-09-30T04:46:48.586Z,99.90
2018-09-30T04:49:17.061Z,99.90
2018-09-30T04:51:45.526Z,99.90
2018-09-30T04:54:14.007Z,99.90
2018-09-30T04:56:42.478Z,99.90
2018-09-30T04:59:10.954Z,99.90
2018-09-30T05:01:39.420Z,99.90
2018-09-30T05:04:07.885Z,99.90
2018-09-30T05:06:36.362Z,99.90
2018-09-30T05:09:06.158Z,99.90
2018-09-30T05:11:34.626Z,99.90
2018-09-30T05:14:03.101Z,99.90
2018-09-30T05:16:31.713Z,99.90
2018-09-30T05:19:00.032Z,99.90
2018-09-30T05:21:28.573Z,99.90
2018-09-30T05:23:57.089Z,99.90
2018-09-30T05:26:25.610Z,99.90
2018-09-30T05:28:54.090Z,99.90
2018-09-30T05:31:22.721Z,99.90
2018-09-30T05:33:51.101Z,99.90
2018-09-30T05:36:19.582Z,99.90
2018-09-30T05:38:48.032Z,99.90
2018-09-30T05:41:16.516Z,99.90
2018-09-30T05:43:44.973Z,99.90
2018-09-30T05:46:13.459Z,99.90
2018-09-30T05:48:41.933Z,99.90
2018-09-30T05:51:10.420Z,99.90
2018-09-30T05:53:38.871Z,99.90
2018-09-30T05:56:07.313Z,99.90
2018-09-30T05:58:35.814Z,99.90
2018-09-30T06:01:04.340Z,99.90
2018-09-30T06:03:32.777Z,99.90
2018-09-30T06:06:01.220Z,99.90
2018-09-30T06:08:29.888Z,99.90
2018-09-30T06:10:58.352Z,99.90
2018-09-30T06:13:26.852Z,99.90
2018-09-30T06:15:55.569Z,99.90
2018-09-30T06:18:23.992Z,99.90
2018-09-30T06:20:52.481Z,99.90
2018-09-30T06:23:27.670Z,99.90
2018-09-30T06:25:56.144Z,99.90
2018-09-30T06:28:24.626Z,99.90
2018-09-30T06:30:53.406Z,99.90
2018-09-30T06:33:21.874Z,99.90
2018-09-30T06:35:50.334Z,99.90
2018-09-30T06:38:18.845Z,99.90
2018-09-30T06:40:47.453Z,99.90
2018-09-30T06:43:15.972Z,99.90
2018-09-30T06:45:44.425Z,99.90
2018-09-30T06:48:12.898Z,99.90
2018-09-30T06:50:41.391Z,99.80
2018-09-30T06:53:09.833Z,98.60
2018-09-30T06:55:38.303Z,97.60
2018-09-30T06:58:06.820Z,98.50
2018-09-30T07:00:35.402Z,97.10
2018-09-30T07:03:03.875Z,94.40
2018-09-30T07:05:32.398Z,93.10
2018-09-30T07:08:00.891Z,91.30
2018-09-30T07:10:29.421Z,91.20
2018-09-30T07:12:57.973Z,89.60
2018-09-30T07:15:26.458Z,89.50
2018-09-30T07:17:54.934Z,88.20
2018-09-30T07:20:23.407Z,85.20
2018-09-30T07:22:51.975Z,83.00
2018-09-30T07:25:20.427Z,83.10
2018-09-30T07:27:48.894Z,78.90
2018-09-30T07:30:17.382Z,76.10
2018-09-30T07:32:45.838Z,74.30
2018-09-30T07:35:14.349Z,72.80
2018-09-30T07:37:42.808Z,72.40
2018-09-30T07:40:11.286Z,69.90
2018-09-30T07:42:39.750Z,65.70
2018-09-30T07:45:08.230Z,65.90
2018-09-30T07:47:36.707Z,65.70
2018-09-30T07:50:05.210Z,64.30
2018-09-30T07:52:33.742Z,62.40
2018-09-30T07:55:08.525Z,63.20
2018-09-30T07:57:37.008Z,62.10
2018-09-30T08:00:06.445Z,60.20
2018-09-30T08:02:34.929Z,60.20
2018-09-30T08:05:03.446Z,60.00
2018-09-30T08:07:31.898Z,60.30
2018-09-30T08:10:00.379Z,61.40
2018-09-30T08:12:28.833Z,58.50
2018-09-30T08:14:57.295Z,55.90
2018-09-30T08:17:25.773Z,53.80
2018-09-30T08:19:54.215Z,53.50
2018-09-30T08:22:22.690Z,51.60
2018-09-30T08:24:51.141Z,49.60
2018-09-30T08:27:19.663Z,48.60
2018-09-30T08:29:48.207Z,47.40
2018-09-30T08:32:16.709Z,45.90
2018-09-30T08:34:45.227Z,45.80
2018-09-30T08:37:18.206Z,45.30
2018-09-30T08:39:46.756Z,44.60
2018-09-30T08:42:15.616Z,43.00
2018-09-30T08:44:44.059Z,42.90
2018-09-30T08:47:12.551Z,44.20
2018-09-30T08:49:41.028Z,43.70
2018-09-30T08:52:09.475Z,42.90
2018-09-30T08:54:37.965Z,42.60
2018-09-30T08:57:06.486Z,40.90
2018-09-30T08:59:35.003Z,40.70
2018-09-30T09:02:03.611Z,39.60
2018-09-30T09:04:32.135Z,39.60
2018-09-30T09:07:00.626Z,39.60
2018-09-30T09:09:29.098Z,39.40
2018-09-30T09:11:57.623Z,38.30
2018-09-30T09:14:26.079Z,38.70
2018-09-30T09:16:54.542Z,38.40
2018-09-30T09:19:23.023Z,38.30
2018-09-30T09:21:51.489Z,38.30
2018-09-30T09:24:19.994Z,37.10
2018-09-30T09:26:48.443Z,36.60
2018-09-30T09:29:16.940Z,36.40
2018-09-30T09:31:45.539Z,36.00
2018-09-30T09:34:13.894Z,35.00
2018-09-30T09:36:42.386Z,35.50
2018-09-30T09:39:10.965Z,35.70
2018-09-30T09:41:39.713Z,35.80
2018-09-30T09:44:08.230Z,34.50
2018-09-30T09:46:36.705Z,33.70
2018-09-30T09:49:05.280Z,33.60
2018-09-30T09:54:01.910Z,32.60
2018-09-30T09:56:30.362Z,32.10
2018-09-30T09:58:58.916Z,32.10
2018-09-30T10:01:27.311Z,31.70
2018-09-30T10:06:23.960Z,31.10
2018-09-30T10:08:52.435Z,30.90
2018-09-30T10:11:20.873Z,32.20
2018-09-30T10:13:49.340Z,33.80
2018-09-30T10:16:17.906Z,33.40
2018-09-30T10:18:46.390Z,32.40
2018-09-30T10:21:14.850Z,32.70
2018-09-30T10:23:43.370Z,31.90
2018-09-30T10:26:11.953Z,33.40
2018-09-30T10:28:40.552Z,32.90
2018-09-30T10:31:09.026Z,32.10
2018-09-30T10:33:37.675Z,31.70
2018-09-30T10:36:06.159Z,30.80
2018-09-30T10:38:34.766Z,30.40
2018-09-30T10:41:03.138Z,30.00
2018-09-30T10:43:31.673Z,29.50
2018-09-30T10:46:00.121Z,29.40
2018-09-30T10:48:28.910Z,29.20
2018-09-30T10:50:57.361Z,29.40
2018-09-30T10:53:25.798Z,29.30
2018-09-30T10:55:54.265Z,28.90
2018-09-30T10:58:22.689Z,28.40
2018-09-30T11:00:51.162Z,29.10
2018-09-30T11:03:19.618Z,28.50
2018-09-30T11:05:48.068Z,28.90
2018-09-30T11:10:44.836Z,29.40
2018-09-30T11:13:13.344Z,29.70
2018-09-30T11:15:41.809Z,29.20
2018-09-30T11:18:10.287Z,29.10
2018-09-30T11:20:38.713Z,29.10
2018-09-30T11:23:07.194Z,28.40
2018-09-30T11:25:35.624Z,28.60
2018-09-30T11:28:04.089Z,28.10
2018-09-30T11:30:32.538Z,29.10
2018-09-30T11:33:01.015Z,28.70
2018-09-30T11:35:29.472Z,28.20
2018-09-30T11:37:57.983Z,30.90
2018-09-30T11:40:26.504Z,33.70
2018-09-30T11:42:55.008Z,32.40
2018-09-30T11:45:23.442Z,31.00
2018-09-30T11:47:51.889Z,32.00
2018-09-30T11:50:20.353Z,33.70
2018-09-30T11:52:48.965Z,31.70
2018-09-30T11:55:17.438Z,30.10
2018-09-30T11:57:45.908Z,29.90
2018-09-30T12:00:14.378Z,31.00
2018-09-30T12:02:42.834Z,30.50
2018-09-30T12:05:11.303Z,28.90
2018-09-30T12:07:39.765Z,28.30
2018-09-30T12:10:08.302Z,29.40
2018-09-30T12:12:37.345Z,28.40
2018-09-30T12:15:05.834Z,32.10
2018-09-30T12:17:34.314Z,29.40
2018-09-30T12:20:02.825Z,29.30
2018-09-30T12:22:31.496Z,29.00
2018-09-30T12:24:59.949Z,29.60
2018-09-30T12:27:28.407Z,31.80
2018-09-30T12:29:56.840Z,29.50
2018-09-30T12:32:25.324Z,33.50
2018-09-30T12:34:53.753Z,29.90
2018-09-30T12:37:22.273Z,31.00
2018-09-30T12:39:50.735Z,31.00
2018-09-30T12:42:19.222Z,31.80
2018-09-30T12:44:47.681Z,31.20
2018-09-30T12:47:16.150Z,31.60
2018-09-30T12:49:44.629Z,30.00
2018-09-30T12:52:13.073Z,33.90
2018-09-30T12:54:41.549Z,33.20
2018-09-30T12:57:09.985Z,31.70
2018-09-30T12:59:38.590Z,31.50
2018-09-30T13:02:07.057Z,29.10
2018-09-30T13:04:35.552Z,32.40
2018-09-30T13:07:04.033Z,32.10
2018-09-30T13:09:32.495Z,34.70
2018-09-30T13:12:01.003Z,31.00
2018-09-30T13:14:29.454Z,32.60
2018-09-30T13:16:57.900Z,30.50
2018-09-30T13:19:26.745Z,33.20
2018-09-30T13:21:55.793Z,32.80
2018-09-30T13:24:24.257Z,34.90
2018-09-30T13:26:52.739Z,31.00
2018-09-30T13:29:21.184Z,31.00
2018-09-30T13:31:49.675Z,32.60
2018-09-30T13:34:18.120Z,32.00
2018-09-30T13:36:46.604Z,34.20
2018-09-30T13:39:15.362Z,32.80
2018-09-30T13:41:43.806Z,35.50
2018-09-30T13:44:12.246Z,35.00
2018-09-30T13:46:40.716Z,35.00
2018-09-30T13:49:09.175Z,34.40
2018-09-30T13:51:37.641Z,31.80
2018-09-30T13:54:06.259Z,32.20
2018-09-30T13:56:34.787Z,32.40
2018-09-30T13:59:03.279Z,33.30
2018-09-30T14:01:31.742Z,39.00
2018-09-30T14:04:00.220Z,36.40
2018-09-30T14:06:28.686Z,35.00
2018-09-30T14:08:57.154Z,36.50
2018-09-30T14:11:25.631Z,36.80
2018-09-30T14:13:54.201Z,36.50
2018-09-30T14:16:22.652Z,35.00
2018-09-30T14:18:51.085Z,36.40
2018-09-30T14:21:19.566Z,36.90
2018-09-30T14:23:48.020Z,38.20
2018-09-30T14:26:16.505Z,38.40
2018-09-30T14:28:44.956Z,36.80
2018-09-30T14:31:13.454Z,39.90
2018-09-30T14:33:42.032Z,39.20
2018-09-30T14:36:10.537Z,47.20
2018-09-30T14:38:38.996Z,45.00
2018-09-30T14:41:07.555Z,50.00
2018-09-30T14:43:35.998Z,47.90
2018-09-30T14:46:04.472Z,50.30
2018-09-30T14:48:32.983Z,55.40
2018-09-30T14:51:01.427Z,50.50
2018-09-30T14:53:29.901Z,52.20
2018-09-30T14:55:58.377Z,52.30
2018-09-30T14:58:26.856Z,55.90
2018-09-30T15:03:23.824Z,47.80
2018-09-30T15:05:52.318Z,41.80
2018-09-30T15:08:20.813Z,46.10
2018-09-30T15:10:49.325Z,47.00
2018-09-30T15:13:17.786Z,47.60
2018-09-30T15:15:46.230Z,43.90
2018-09-30T15:18:14.708Z,43.40
2018-09-30T15:20:43.152Z,49.00
2018-09-30T15:23:11.624Z,42.70
2018-09-30T15:25:40.137Z,54.50
2018-09-30T15:28:08.639Z,53.30
2018-09-30T15:30:37.107Z,54.00
2018-09-30T15:33:05.613Z,51.80
2018-09-30T15:35:34.084Z,48.50
2018-09-30T15:38:02.845Z,60.10
2018-09-30T15:40:31.338Z,48.40
2018-09-30T15:42:59.872Z,46.10
2018-09-30T15:45:28.208Z,47.00
2018-09-30T15:47:56.645Z,48.80
2018-09-30T15:50:25.106Z,48.70
2018-09-30T15:52:53.577Z,48.10
2018-09-30T15:55:22.056Z,48.40
2018-09-30T15:57:50.516Z,50.00
2018-09-30T16:00:18.985Z,49.50
2018-09-30T16:02:47.464Z,51.10
2018-09-30T16:05:15.918Z,50.40
2018-09-30T16:07:45.274Z,51.70
2018-09-30T16:10:13.743Z,52.40
2018-09-30T16:12:42.177Z,51.80
2018-09-30T16:15:10.683Z,51.70
2018-09-30T16:17:39.186Z,51.90
2018-09-30T16:20:07.729Z,53.50
2018-09-30T16:22:36.185Z,54.10
2018-09-30T16:25:04.681Z,56.90
2018-09-30T16:27:33.137Z,57.40
2018-09-30T16:30:01.652Z,58.10
2018-09-30T16:32:30.141Z,59.40
2018-09-30T16:34:58.684Z,60.50
2018-09-30T16:37:27.133Z,62.40
2018-09-30T16:39:55.584Z,65.30
2018-09-30T16:42:24.294Z,68.60
2018-09-30T16:44:52.767Z,71.00
2018-09-30T16:47:21.256Z,73.00
2018-09-30T16:49:49.729Z,75.30
2018-09-30T16:52:18.218Z,76.00
2018-09-30T16:54:46.689Z,79.10
2018-09-30T16:57:15.152Z,80.10
2018-09-30T16:59:43.659Z,82.90
2018-09-30T17:02:12.095Z,82.80
2018-09-30T17:04:40.552Z,84.40
2018-09-30T17:07:09.008Z,87.10
2018-09-30T17:09:37.464Z,88.40
2018-09-30T17:12:05.924Z,89.90
2018-09-30T17:14:34.368Z,90.90
2018-09-30T17:17:02.881Z,91.80
2018-09-30T17:19:31.375Z,92.30
2018-09-30T17:21:59.860Z,93.10
2018-09-30T17:24:28.335Z,93.90
2018-09-30T17:26:56.768Z,94.70
2018-09-30T17:29:25.248Z,95.30
2018-09-30T17:31:53.786Z,95.50
2018-09-30T17:34:22.248Z,96.10
2018-09-30T17:36:50.683Z,96.30
2018-09-30T17:39:19.153Z,96.70
2018-09-30T17:41:47.585Z,97.10
2018-09-30T17:44:16.073Z,97.20
2018-09-30T17:46:44.550Z,97.50
2018-09-30T17:49:12.997Z,97.70
2018-09-30T17:51:41.493Z,97.80
2018-09-30T17:54:09.947Z,98.10
2018-09-30T17:56:38.435Z,98.10
2018-09-30T17:59:06.883Z,98.70
2018-09-30T18:01:35.333Z,98.80
2018-09-30T18:04:03.926Z,98.70
2018-09-30T18:06:32.334Z,99.00
2018-09-30T18:09:00.800Z,99.30
2018-09-30T18:11:29.234Z,99.20
2018-09-30T18:13:57.719Z,99.60
2018-09-30T18:16:26.166Z,99.80
2018-09-30T18:18:54.609Z,99.90
2018-09-30T18:21:23.110Z,99.90
2018-09-30T18:23:51.644Z,99.90
2018-09-30T18:26:20.034Z,99.90
2018-09-30T18:28:48.500Z,99.90
2018-09-30T18:31:17.082Z,99.90
2018-09-30T18:33:45.531Z,99.90
2018-09-30T18:36:14.620Z,99.90
2018-09-30T18:38:43.140Z,99.90
2018-09-30T18:41:11.575Z,99.90
2018-09-30T18:43:40.085Z,99.90
2018-09-30T18:46:08.559Z,99.90
2018-09-30T18:48:43.449Z,99.90
2018-09-30T18:51:11.952Z,99.90
2018-09-30T18:53:40.453Z,99.90
2018-09-30T18:56:08.966Z,99.90
2018-09-30T18:58:37.401Z,99.90
2018-09-30T19:01:06.003Z,99.90
2018-09-30T19:03:34.506Z,99.90
2018-09-30T19:06:03.032Z,99.90
2018-09-30T19:08:31.526Z,99.90
2018-09-30T19:11:00.019Z,99.90
2018-09-30T19:13:28.523Z,99.90
2018-09-30T19:15:57.365Z,99.90
2018-09-30T19:18:25.558Z,99.90
2018-09-30T19:20:54.038Z,99.90
2018-09-30T19:23:22.515Z,99.90
2018-09-30T19:25:51.052Z,99.90
2018-09-30T19:28:19.581Z,99.90
2018-09-30T19:30:48.100Z,99.90
2018-09-30T19:33:16.577Z,99.90
2018-09-30T19:35:45.154Z,99.90
2018-09-30T19:38:13.666Z,99.90
2018-09-30T19:40:42.146Z,99.90
2018-09-30T19:43:10.610Z,99.90
2018-09-30T19:45:39.144Z,99.90
2018-09-30T19:48:07.616Z,99.90
2018-09-30T19:50:36.087Z,99.90
2018-09-30T19:53:04.580Z,99.90
2018-09-30T19:55:33.063Z,99.90
2018-09-30T19:58:01.528Z,99.90
2018-09-30T20:00:30.066Z,99.90
2018-09-30T20:02:59.098Z,99.90
2018-09-30T20:05:28.316Z,99.90
2018-09-30T20:07:56.791Z,99.90
2018-09-30T20:10:25.319Z,99.90
2018-09-30T20:12:53.743Z,99.90
2018-09-30T20:15:22.194Z,99.90
2018-09-30T20:17:52.569Z,99.90
2018-09-30T20:20:21.019Z,99.90
2018-09-30T20:22:49.568Z,99.90
2018-09-30T20:25:18.035Z,99.90
2018-09-30T20:27:46.522Z,99.90
2018-09-30T20:30:14.968Z,99.90
2018-09-30T20:32:43.502Z,99.90
2018-09-30T20:35:12.190Z,99.90
2018-09-30T20:37:40.666Z,99.90
2018-09-30T20:40:09.150Z,99.90
2018-09-30T20:42:37.618Z,99.90
2018-09-30T20:45:06.095Z,99.90
2018-09-30T20:47:34.588Z,99.90
2018-09-30T20:50:03.054Z,99.90
2018-09-30T20:52:31.593Z,99.90
2018-09-30T20:55:00.417Z,99.90
2018-09-30T20:57:29.111Z,99.90
2018-09-30T20:59:57.613Z,99.90
2018-09-30T21:02:26.146Z,99.90
2018-09-30T21:04:54.634Z,99.90
2018-09-30T21:07:23.144Z,99.90
2018-09-30T21:09:51.889Z,99.90
2018-09-30T21:12:20.687Z,99.90
2018-09-30T21:14:49.518Z,99.90
2018-09-30T21:17:18.148Z,99.90
2018-09-30T21:19:46.678Z,99.90
2018-09-30T21:22:15.132Z,99.90
2018-09-30T21:24:43.628Z,99.90
2018-09-30T21:27:12.194Z,99.90
2018-09-30T21:29:40.667Z,99.90
2018-09-30T21:32:09.168Z,99.90
2018-09-30T21:34:37.662Z,99.90
2018-09-30T21:37:06.143Z,99.90
2018-09-30T21:39:34.610Z,99.90
2018-09-30T21:42:03.406Z,99.90
2018-09-30T21:44:31.878Z,99.90
2018-09-30T21:47:00.359Z,99.90
2018-09-30T21:49:28.859Z,99.90
2018-09-30T21:51:57.346Z,99.90
2018-09-30T21:54:25.889Z,99.90
2018-09-30T21:56:54.348Z,99.90
2018-09-30T21:59:22.805Z,99.90
2018-09-30T22:01:51.308Z,99.90
2018-09-30T22:04:19.735Z,99.90
2018-09-30T22:06:48.204Z,99.90
2018-09-30T22:09:16.701Z,99.90
2018-09-30T22:11:45.172Z,99.90
2018-09-30T22:14:13.671Z,99.90
2018-09-30T22:16:42.141Z,99.90
2018-09-30T22:19:10.660Z,99.90
2018-09-30T22:21:39.087Z,99.90
2018-09-30T22:24:07.650Z,99.90
2018-09-30T22:26:36.157Z,99.90
2018-09-30T22:29:04.637Z,99.90
2018-09-30T22:31:33.144Z,99.90
2018-09-30T22:34:01.610Z,99.90
2018-09-30T22:36:30.142Z,99.90
2018-09-30T22:38:58.628Z,99.90
2018-09-30T22:41:27.099Z,99.90
2018-09-30T22:43:55.594Z,99.90
2018-09-30T22:46:24.039Z,99.90
2018-09-30T22:48:52.479Z,99.90
2018-09-30T22:51:20.970Z,99.90
2018-09-30T22:53:49.434Z,99.90
2018-09-30T22:56:17.973Z,99.90
2018-09-30T22:58:46.431Z,99.90
2018-09-30T23:01:14.898Z,99.90
2018-09-30T23:03:43.350Z,99.90
2018-09-30T23:06:11.822Z,99.90
2018-09-30T23:08:40.298Z,99.90
2018-09-30T23:11:08.749Z,99.90
2018-09-30T23:13:37.211Z,99.90
2018-09-30T23:16:05.739Z,99.90
2018-09-30T23:18:34.187Z,99.90
2018-09-30T23:21:02.696Z,99.90
2018-09-30T23:23:31.159Z,99.90
2018-09-30T23:25:59.628Z,99.90
2018-09-30T23:28:28.091Z,99.90
2018-09-30T23:30:56.596Z,99.90
2018-09-30T23:33:25.074Z,99.90
2018-09-30T23:35:53.543Z,99.90
2018-09-30T23:38:21.984Z,99.90
2018-09-30T23:40:56.983Z,99.90
2018-09-30T23:43:25.456Z,99.90
2018-09-30T23:45:53.947Z,99.90
2018-09-30T23:48:22.406Z,99.90
2018-09-30T23:50:50.883Z,99.90
2018-09-30T23:53:19.449Z,99.90
2018-09-30T23:55:47.964Z,99.90
2018-09-30T23:58:16.437Z,99.90
